createdAt,value
2019-05-17T00:00:58.182Z,90.63
2019-05-17T00:05:59.863Z,88.57
2019-05-17T00:11:01.530Z,87.50
2019-05-17T00:16:03.351Z,93.90
2019-05-17T00:21:07.509Z,98.47
2019-05-17T00:26:08.298Z,88.80
2019-05-17T00:31:10.174Z,95.93
2019-05-17T00:36:11.755Z,98.07
2019-05-17T00:41:13.439Z,94.80
2019-05-17T00:46:17.169Z,98.37
2019-05-17T00:51:18.537Z,94.80
2019-05-17T00:56:20.060Z,94.73
2019-05-17T01:01:21.736Z,85.87
2019-05-17T01:06:23.203Z,104.50
2019-05-17T01:11:26.962Z,91.63
2019-05-17T01:16:28.415Z,91.20
2019-05-17T01:21:30.005Z,96.90
2019-05-17T01:26:31.479Z,105.23
2019-05-17T01:31:33.250Z,94.07
2019-05-17T01:36:36.876Z,107.47
2019-05-17T01:41:38.308Z,108.47
2019-05-17T01:46:39.847Z,106.87
2019-05-17T01:51:41.335Z,100.47
2019-05-17T01:56:43.323Z,109.10
2019-05-17T02:01:47.386Z,97.17
2019-05-17T02:06:48.991Z,100.87
2019-05-17T02:11:50.471Z,115.83
2019-05-17T02:16:53.227Z,111.80
2019-05-17T02:21:56.874Z,120.50
2019-05-17T02:26:58.192Z,115.83
2019-05-17T02:32:03.553Z,110.20
2019-05-17T02:37:03.758Z,114.90
2019-05-17T02:42:05.433Z,104.57
2019-05-17T02:47:06.948Z,107.87
2019-05-17T02:52:08.577Z,107.80
2019-05-17T02:57:13.806Z,101.90
2019-05-17T03:02:13.566Z,101.87
2019-05-17T03:07:15.038Z,100.77
2019-05-17T03:12:16.513Z,106.17
2019-05-17T03:17:18.088Z,95.57
2019-05-17T03:22:22.858Z,101.93
2019-05-17T03:27:23.488Z,108.73
2019-05-17T03:32:26.895Z,109.87
2019-05-17T03:37:36.435Z,111.00
2019-05-17T03:42:33.154Z,106.03
2019-05-17T03:47:35.048Z,103.70
2019-05-17T03:52:36.670Z,107.37
2019-05-17T03:57:38.416Z,109.23
2019-05-17T04:02:43.779Z,105.97
2019-05-17T04:07:43.978Z,103.77
2019-05-17T04:12:45.648Z,110.43
2019-05-17T04:17:47.223Z,106.87
2019-05-17T04:22:48.952Z,97.20
2019-05-17T04:27:53.376Z,105.50
2019-05-17T04:32:53.794Z,104.90
2019-05-17T04:37:55.500Z,104.50
2019-05-17T04:42:57.160Z,103.37
2019-05-17T04:47:59.034Z,106.80
2019-05-17T04:53:02.624Z,98.20
2019-05-17T04:58:04.513Z,101.17
2019-05-17T05:03:06.214Z,109.30
2019-05-17T05:08:07.895Z,106.37
2019-05-17T05:13:09.464Z,110.67
2019-05-17T05:18:13.223Z,117.40
2019-05-17T05:23:15.167Z,112.33
2019-05-17T05:28:18.444Z,111.27
2019-05-17T05:33:22.101Z,106.90
2019-05-17T05:38:23.364Z,111.93
2019-05-17T05:43:24.942Z,102.60
2019-05-17T05:48:26.410Z,107.37
2019-05-17T05:53:27.895Z,107.33
2019-05-17T05:58:29.366Z,105.40
2019-05-17T06:03:32.028Z,98.87
2019-05-17T06:08:33.783Z,99.97
2019-05-17T06:13:35.260Z,104.83
2019-05-17T06:18:36.744Z,115.93
2019-05-17T06:23:38.206Z,100.67
2019-05-17T06:28:42.529Z,96.73
2019-05-17T06:33:43.971Z,93.00
2019-05-17T06:38:45.520Z,104.87
2019-05-17T06:43:47.095Z,94.50
2019-05-17T06:48:48.566Z,92.93
2019-05-17T06:53:52.235Z,89.80
2019-05-17T06:58:53.566Z,85.77
2019-05-17T07:03:55.146Z,76.37
2019-05-17T07:08:56.626Z,83.03
2019-05-17T07:13:59.769Z,70.00
2019-05-17T07:19:01.393Z,69.63
2019-05-17T07:24:03.065Z,70.70
2019-05-17T07:29:04.551Z,71.40
2019-05-17T07:34:06.035Z,65.17
2019-05-17T07:39:10.578Z,71.87
2019-05-17T07:44:11.114Z,66.60
2019-05-17T07:49:12.639Z,70.30
2019-05-17T07:54:14.215Z,69.97
2019-05-17T07:59:15.894Z,71.00
2019-05-17T08:04:20.377Z,59.73
2019-05-17T08:09:21.280Z,58.93
2019-05-17T08:14:30.101Z,59.27
2019-05-17T08:19:26.189Z,59.07
2019-05-17T08:24:27.678Z,62.10
2019-05-17T08:29:29.818Z,61.80
2019-05-17T08:34:31.582Z,54.93
2019-05-17T08:39:33.172Z,51.10
2019-05-17T08:44:34.767Z,49.67
2019-05-17T08:49:36.391Z,49.93
2019-05-17T08:54:42.558Z,54.83
2019-05-17T08:59:41.303Z,50.43
2019-05-17T09:04:42.861Z,46.47
2019-05-17T09:09:44.337Z,44.93
2019-05-17T09:14:45.895Z,48.33
2019-05-17T09:19:47.508Z,46.67
2019-05-17T09:24:49.997Z,51.90
2019-05-17T09:29:51.673Z,46.00
2019-05-17T09:34:53.198Z,50.37
2019-05-17T09:39:54.679Z,46.70
2019-05-17T09:44:56.268Z,42.03
2019-05-17T09:49:57.750Z,38.13
2019-05-17T09:55:00.429Z,44.77
2019-05-17T10:00:06.154Z,39.67
2019-05-17T10:05:10.889Z,38.00
2019-05-17T10:10:13.243Z,49.13
2019-05-17T10:15:15.330Z,41.30
2019-05-17T10:20:17.205Z,41.40
2019-05-17T10:25:20.097Z,40.67
2019-05-17T10:30:21.964Z,44.10
2019-05-17T10:35:23.572Z,43.10
2019-05-17T10:40:25.845Z,39.80
2019-05-17T10:45:27.431Z,45.70
2019-05-17T10:50:29.772Z,37.27
2019-05-17T10:55:31.602Z,37.43
2019-05-17T11:00:33.426Z,32.93
2019-05-17T11:05:35.160Z,31.87
2019-05-17T11:10:36.745Z,38.70
2019-05-17T11:15:38.323Z,36.27
2019-05-17T11:20:40.204Z,37.37
2019-05-17T11:25:46.003Z,36.73
2019-05-17T11:30:45.058Z,40.17
2019-05-17T11:35:46.582Z,37.20
2019-05-17T11:40:49.845Z,41.70
2019-05-17T11:45:51.543Z,39.93
2019-05-17T11:50:55.121Z,40.63
2019-05-17T11:55:56.716Z,38.37
2019-05-17T12:00:58.419Z,38.37
2019-05-17T12:06:00.138Z,38.43
2019-05-17T12:11:02.305Z,36.70
2019-05-17T12:16:05.030Z,35.03
2019-05-17T12:21:06.987Z,41.13
2019-05-17T12:26:08.511Z,43.03
2019-05-17T12:31:10.083Z,40.53
2019-05-17T12:36:11.655Z,42.27
2019-05-17T12:41:13.140Z,35.83
2019-05-17T12:46:14.631Z,42.90
2019-05-17T12:51:16.104Z,41.67
2019-05-17T12:56:17.742Z,39.97
2019-05-17T13:01:19.251Z,38.80
2019-05-17T13:06:20.774Z,35.43
2019-05-17T13:11:22.300Z,36.40
2019-05-17T13:16:23.932Z,32.20
2019-05-17T13:21:25.516Z,38.17
2019-05-17T13:26:27.049Z,35.37
2019-05-17T13:31:28.529Z,28.60
2019-05-17T13:36:30.004Z,20.87
2019-05-17T13:41:31.484Z,19.23
2019-05-17T13:46:33.847Z,17.83
2019-05-17T13:51:35.569Z,16.53
2019-05-17T13:56:37.287Z,17.67
2019-05-17T14:01:39.873Z,11.20
2019-05-17T14:06:41.588Z,11.87
2019-05-17T14:11:43.173Z,12.93
2019-05-17T14:16:44.665Z,16.33
2019-05-17T14:21:46.266Z,24.93
2019-05-17T14:26:48.901Z,14.47
2019-05-17T14:31:50.420Z,14.37
2019-05-17T14:36:51.905Z,15.47
2019-05-17T14:41:53.491Z,10.27
2019-05-17T14:46:55.007Z,11.03
2019-05-17T14:51:56.490Z,9.47
2019-05-17T14:56:58.060Z,11.40
2019-05-17T15:01:59.534Z,10.40
2019-05-17T15:07:01.710Z,20.67
2019-05-17T15:12:03.730Z,30.57
2019-05-17T15:17:05.371Z,23.93
2019-05-17T15:22:07.141Z,21.03
2019-05-17T15:27:08.802Z,21.73
2019-05-17T15:32:10.312Z,21.13
2019-05-17T15:37:12.011Z,27.23
2019-05-17T15:42:13.805Z,20.77
2019-05-17T15:47:15.513Z,16.53
2019-05-17T15:52:17.380Z,21.50
2019-05-17T15:57:18.955Z,22.73
2019-05-17T16:02:20.558Z,33.80
2019-05-17T16:07:22.303Z,29.77
2019-05-17T16:12:23.935Z,25.67
2019-05-17T16:17:25.541Z,24.10
2019-05-17T16:22:27.038Z,17.20
2019-05-17T16:27:28.773Z,23.20
2019-05-17T16:32:30.295Z,32.37
2019-05-17T16:37:32.013Z,39.20
2019-05-17T16:42:33.907Z,32.10
2019-05-17T16:47:35.519Z,43.07
2019-05-17T16:52:37.216Z,44.83
2019-05-17T16:57:38.816Z,39.33
2019-05-17T17:02:41.559Z,33.13
2019-05-17T17:07:43.276Z,67.30
2019-05-17T17:12:44.785Z,43.47
2019-05-17T17:17:46.586Z,68.93
2019-05-17T17:22:48.201Z,61.23
2019-05-17T17:27:50.143Z,32.30
2019-05-17T17:32:51.934Z,31.93
2019-05-17T17:37:53.495Z,32.70
2019-05-17T17:42:55.075Z,49.33
2019-05-17T17:47:56.685Z,58.83
2019-05-17T17:52:58.584Z,65.57
2019-05-17T17:58:00.233Z,65.07
2019-05-17T18:03:01.900Z,59.53
2019-05-17T18:08:03.714Z,107.10
2019-05-17T18:13:05.413Z,255.90
2019-05-17T18:18:07.277Z,120.20
2019-05-17T18:23:11.291Z,84.77
2019-05-17T18:28:13.238Z,116.87
2019-05-17T18:33:14.975Z,113.57
2019-05-17T18:38:21.680Z,112.17
2019-05-17T18:43:23.289Z,71.10
2019-05-17T18:48:24.926Z,79.03
2019-05-17T18:53:26.502Z,75.53
2019-05-17T18:58:28.095Z,74.07
2019-05-17T19:03:29.726Z,74.97
2019-05-17T19:08:31.358Z,71.87
2019-05-17T19:13:33.041Z,67.97
2019-05-17T19:18:34.636Z,66.33
2019-05-17T19:23:36.117Z,69.43
2019-05-17T19:28:37.694Z,85.23
2019-05-17T19:33:39.161Z,71.30
2019-05-17T19:38:40.698Z,79.30
2019-05-17T19:43:42.173Z,56.63
2019-05-17T19:48:43.645Z,55.53
2019-05-17T19:53:45.227Z,52.57
2019-05-17T19:58:46.702Z,54.57
2019-05-17T20:03:48.215Z,218.67
2019-05-17T20:08:50.155Z,92.53
2019-05-17T20:13:52.740Z,59.53
2019-05-17T20:18:54.330Z,59.40
2019-05-17T20:23:55.807Z,54.40
2019-05-17T20:28:57.278Z,51.83
2019-05-17T20:33:58.764Z,50.77
2019-05-17T20:39:00.310Z,56.27
2019-05-17T20:44:01.884Z,38.53
2019-05-17T20:49:03.696Z,38.90
2019-05-17T20:54:05.531Z,34.57
2019-05-17T20:59:07.144Z,47.10
2019-05-17T21:04:08.632Z,47.23
2019-05-17T21:09:10.158Z,51.90
2019-05-17T21:14:11.847Z,52.93
2019-05-17T21:19:13.319Z,51.80
2019-05-17T21:24:14.791Z,54.30
2019-05-17T21:29:16.378Z,52.47
2019-05-17T21:34:17.899Z,50.10
2019-05-17T21:39:19.418Z,64.03
2019-05-17T21:44:20.883Z,46.27
2019-05-17T21:49:22.346Z,57.90
2019-05-17T21:54:23.938Z,68.60
2019-05-17T21:59:25.416Z,57.20
2019-05-17T22:04:27.257Z,97.67
2019-05-17T22:09:29.011Z,45.93
2019-05-17T22:14:30.730Z,61.10
2019-05-17T22:19:32.259Z,67.97
2019-05-17T22:24:33.835Z,51.40
2019-05-17T22:29:35.313Z,50.43
2019-05-17T22:34:36.791Z,56.03
2019-05-17T22:39:38.376Z,56.23
2019-05-17T22:44:39.847Z,66.73
2019-05-17T22:49:41.530Z,54.00
2019-05-17T22:54:43.008Z,53.23
2019-05-17T22:59:44.484Z,50.23
2019-05-17T23:04:46.083Z,47.93
2019-05-17T23:09:47.615Z,45.17
2019-05-17T23:14:49.084Z,43.37
2019-05-17T23:19:50.563Z,43.77
2019-05-17T23:24:52.040Z,46.97
2019-05-17T23:29:53.512Z,42.90
2019-05-17T23:34:54.987Z,45.70
2019-05-17T23:39:56.543Z,101.90
2019-05-17T23:44:58.022Z,50.60
2019-05-17T23:49:59.503Z,55.67
2019-05-17T23:55:01.078Z,52.73
